Nearby METAR Reports

KLWM - Lawrence,MA, USA
Distance from station: NE 12mi, 19km
Updated: Tue, 14-Aug-2018 9:54pm EDT
Clear
Clear
 Wind from calm
Wind: Calm
Temperature: 73°F , 23°C
Dew Point: 68°F , 20°C
Humidity: 83%
Barometer: 29.85 inHg , 1010.8 hPa
Clouds: Clear
Visibility: 10 miles , 16 km
2018/08/15 01:54 KLWM 150154Z 00000KT 10SM CLR 23/20 A2985 RMK AO2 RAE0059 SLP107 P0000 T02280200
KBED - Bedford,MA, USA
Distance from station: SSE 12mi, 19km
Updated: Tue, 14-Aug-2018 9:56pm EDT
Clear
Clear
 Wind from SSE
Wind: SSE 6 mph , 9 km/h
Temperature: 70°F , 21°C
Dew Point: 68°F , 20°C
Humidity: 94%
Barometer: 29.83 inHg , 1010.2 hPa
Clouds: Clear
Visibility: 10 miles , 16 km
2018/08/15 01:56 KBED 150156Z 15005KT 10SM CLR 21/20 A2983 RMK AO2 SLP110 T02110200

Metar display script from Saratoga-Weather.org